createdAt,value
2018-12-06T00:02:01.902Z,50.10
2018-12-06T00:04:29.691Z,55.17
2018-12-06T00:06:58.450Z,53.83
2018-12-06T00:09:27.438Z,49.87
2018-12-06T00:11:55.423Z,46.60
2018-12-06T00:14:23.402Z,47.73
2018-12-06T00:16:53.993Z,51.77
2018-12-06T00:19:21.880Z,56.17
2018-12-06T00:21:50.790Z,53.33
2018-12-06T00:24:18.650Z,48.00
2018-12-06T00:26:47.641Z,55.33
2018-12-06T00:29:15.497Z,50.50
2018-12-06T00:31:43.330Z,51.03
2018-12-06T00:34:11.192Z,52.33
2018-12-06T00:36:40.853Z,47.63
2018-12-06T00:39:08.689Z,54.20
2018-12-06T00:41:36.559Z,50.17
2018-12-06T00:44:04.424Z,50.10
2018-12-06T00:46:32.290Z,49.43
2018-12-06T00:49:00.106Z,49.03
2018-12-06T00:51:28.023Z,51.03
2018-12-06T00:53:55.907Z,56.37
2018-12-06T00:56:23.863Z,49.30
2018-12-06T00:58:51.726Z,50.30
2018-12-06T01:01:19.597Z,48.03
2018-12-06T01:03:47.417Z,50.87
2018-12-06T01:06:15.305Z,48.40
2018-12-06T01:11:31.115Z,48.93
2018-12-06T01:13:58.898Z,55.00
2018-12-06T01:16:26.635Z,46.63
2018-12-06T01:18:54.347Z,51.53
2018-12-06T01:21:22.135Z,43.50
2018-12-06T01:23:49.863Z,51.53
2018-12-06T01:26:17.600Z,47.67
2018-12-06T01:28:45.303Z,50.67
2018-12-06T01:31:13.021Z,46.73
2018-12-06T01:33:40.735Z,46.80
2018-12-06T01:36:08.550Z,44.97
2018-12-06T01:38:36.250Z,46.13
2018-12-06T01:41:03.991Z,45.37
2018-12-06T01:43:31.915Z,51.07
2018-12-06T01:45:59.890Z,45.13
2018-12-06T01:48:28.064Z,43.90
2018-12-06T01:50:56.075Z,49.23
2018-12-06T01:53:23.972Z,44.07
2018-12-06T01:55:51.957Z,52.97
2018-12-06T01:58:19.902Z,44.50
2018-12-06T02:00:47.926Z,50.47
2018-12-06T02:03:15.837Z,52.57
2018-12-06T02:05:43.840Z,52.33
2018-12-06T02:08:11.749Z,49.87
2018-12-06T02:10:39.818Z,50.37
2018-12-06T02:13:07.745Z,62.10
2018-12-06T02:15:35.722Z,55.77
2018-12-06T02:18:03.844Z,58.20
2018-12-06T02:20:31.761Z,56.83
2018-12-06T02:23:00.783Z,60.97
2018-12-06T02:25:28.657Z,53.97
2018-12-06T02:27:56.449Z,55.43
2018-12-06T02:30:24.304Z,62.67
2018-12-06T02:32:52.339Z,66.60
2018-12-06T02:35:21.128Z,67.80
2018-12-06T02:37:48.927Z,62.30
2018-12-06T02:40:16.681Z,67.90
2018-12-06T02:42:44.444Z,73.00
2018-12-06T02:45:12.930Z,61.30
2018-12-06T02:47:41.991Z,67.43
2018-12-06T02:50:09.713Z,69.33
2018-12-06T02:52:37.467Z,67.80
2018-12-06T02:55:05.340Z,71.37
2018-12-06T02:57:33.087Z,64.63
2018-12-06T03:00:00.825Z,69.00
2018-12-06T03:02:28.627Z,65.27
2018-12-06T03:04:56.385Z,72.43
2018-12-06T03:07:24.149Z,71.00
2018-12-06T03:09:51.899Z,77.07
2018-12-06T03:12:19.639Z,86.83
2018-12-06T03:14:47.440Z,74.03
2018-12-06T03:17:15.334Z,78.17
2018-12-06T03:19:43.325Z,84.13
2018-12-06T03:22:11.223Z,83.27
2018-12-06T03:24:39.179Z,83.40
2018-12-06T03:27:07.101Z,85.97
2018-12-06T03:29:35.046Z,96.77
2018-12-06T03:32:02.874Z,86.83
2018-12-06T03:34:30.775Z,88.03
2018-12-06T03:36:58.620Z,89.93
2018-12-06T03:39:26.514Z,90.70
2018-12-06T03:41:54.370Z,101.13
2018-12-06T03:44:22.263Z,95.47
2018-12-06T03:46:50.115Z,98.60
2018-12-06T03:49:17.882Z,108.60
2018-12-06T03:51:45.680Z,101.40
2018-12-06T03:54:13.395Z,99.37
2018-12-06T03:56:41.191Z,90.37
2018-12-06T03:59:08.979Z,95.17
2018-12-06T04:01:36.982Z,94.70
2018-12-06T04:04:04.902Z,103.17
2018-12-06T04:06:32.859Z,93.40
2018-12-06T04:09:00.757Z,95.97
2018-12-06T04:11:28.690Z,87.77
2018-12-06T04:13:56.494Z,96.23
2018-12-06T04:16:24.401Z,85.73
2018-12-06T04:18:52.262Z,91.47
2018-12-06T04:21:20.146Z,91.73
2018-12-06T04:23:47.987Z,86.83
2018-12-06T04:26:15.847Z,104.20
2018-12-06T04:28:43.699Z,96.70
2018-12-06T04:31:11.592Z,99.90
2018-12-06T04:33:39.446Z,96.93
2018-12-06T04:36:07.306Z,100.40
2018-12-06T04:38:35.159Z,102.63
2018-12-06T04:41:03.108Z,105.00
2018-12-06T04:43:30.943Z,111.77
2018-12-06T04:45:58.814Z,114.30
2018-12-06T04:48:26.657Z,126.40
2018-12-06T04:50:54.631Z,110.00
2018-12-06T04:53:23.998Z,100.03
2018-12-06T04:55:51.940Z,107.53
2018-12-06T04:58:19.776Z,107.40
2018-12-06T05:00:47.749Z,111.27
2018-12-06T05:03:15.615Z,99.47
2018-12-06T05:05:43.483Z,109.87
2018-12-06T05:08:11.321Z,105.27
2018-12-06T05:10:39.153Z,86.17
2018-12-06T05:13:07.981Z,94.07
2018-12-06T05:15:35.796Z,89.83
2018-12-06T05:18:03.646Z,84.33
2018-12-06T05:20:31.462Z,78.00
2018-12-06T05:22:59.309Z,79.03
2018-12-06T05:25:27.144Z,67.37
2018-12-06T05:27:54.962Z,62.97
2018-12-06T05:30:22.808Z,59.33
2018-12-06T05:32:50.638Z,59.33
2018-12-06T05:35:18.473Z,61.47
2018-12-06T05:37:46.321Z,63.90
2018-12-06T05:40:14.185Z,53.77
2018-12-06T05:42:42.019Z,62.73
2018-12-06T05:45:09.836Z,56.27
2018-12-06T05:47:37.656Z,62.57
2018-12-06T05:50:05.960Z,56.33
2018-12-06T05:52:33.788Z,50.13
2018-12-06T05:55:01.653Z,56.90
2018-12-06T05:57:29.458Z,52.47
2018-12-06T06:02:23.392Z,54.63
2018-12-06T06:04:51.263Z,69.27
2018-12-06T06:07:19.083Z,50.53
2018-12-06T06:09:46.976Z,61.30
2018-12-06T06:12:14.818Z,63.03
2018-12-06T06:14:42.702Z,69.00
2018-12-06T06:17:10.568Z,72.13
2018-12-06T06:19:38.429Z,58.17
2018-12-06T06:22:06.300Z,58.70
2018-12-06T06:24:34.781Z,57.87
2018-12-06T06:27:02.730Z,53.53
2018-12-06T06:29:30.585Z,63.80
2018-12-06T06:31:58.513Z,59.00
2018-12-06T06:34:26.387Z,58.00
2018-12-06T06:36:54.327Z,50.33
2018-12-06T06:39:22.142Z,55.50
2018-12-06T06:41:50.104Z,59.53
2018-12-06T06:44:17.949Z,51.40
2018-12-06T06:49:20.188Z,54.40
2018-12-06T06:51:47.946Z,47.47
2018-12-06T06:54:15.711Z,52.00
2018-12-06T06:56:43.520Z,48.70
2018-12-06T06:59:11.248Z,42.60
2018-12-06T07:04:46.944Z,46.97
2018-12-06T07:07:14.817Z,44.37
2018-12-06T07:09:42.743Z,43.50
2018-12-06T07:12:10.652Z,42.83
2018-12-06T07:14:38.506Z,52.87
2018-12-06T07:17:06.355Z,54.73
2018-12-06T07:19:34.232Z,64.97
2018-12-06T07:22:02.116Z,57.77
2018-12-06T07:24:29.995Z,61.60
2018-12-06T07:26:57.956Z,56.83
2018-12-06T07:29:25.835Z,63.97
2018-12-06T07:31:53.804Z,60.53
2018-12-06T07:34:21.659Z,68.80
2018-12-06T07:36:50.488Z,68.57
2018-12-06T07:39:18.322Z,65.97
2018-12-06T07:41:46.264Z,57.57
2018-12-06T07:44:14.059Z,63.00
2018-12-06T07:46:41.995Z,55.60
2018-12-06T07:49:09.810Z,54.60
2018-12-06T07:51:37.784Z,49.23
2018-12-06T07:54:05.604Z,49.40
2018-12-06T07:56:33.503Z,60.43
2018-12-06T07:59:01.390Z,43.73
2018-12-06T08:01:29.298Z,46.00
2018-12-06T08:03:57.235Z,46.13
2018-12-06T08:06:25.139Z,43.57
2018-12-06T08:08:52.938Z,37.63
2018-12-06T08:11:20.735Z,38.27
2018-12-06T08:13:53.418Z,41.63
2018-12-06T08:18:51.216Z,34.60
2018-12-06T08:21:19.152Z,34.20
2018-12-06T08:23:48.036Z,38.67
2018-12-06T08:26:15.860Z,43.40
2018-12-06T08:28:43.706Z,31.33
2018-12-06T08:31:11.563Z,40.77
2018-12-06T08:33:39.378Z,30.20
2018-12-06T08:36:07.206Z,31.83
2018-12-06T08:38:35.052Z,31.53
2018-12-06T08:41:02.850Z,34.83
2018-12-06T08:43:31.819Z,37.67
2018-12-06T08:45:59.755Z,28.60
2018-12-06T08:48:27.612Z,30.40
2018-12-06T08:50:55.494Z,30.53
2018-12-06T08:53:23.330Z,44.23
2018-12-06T08:55:51.183Z,35.60
2018-12-06T08:58:23.997Z,32.50
2018-12-06T09:00:51.850Z,28.57
2018-12-06T09:03:19.704Z,26.83
2018-12-06T09:05:47.554Z,25.53
2018-12-06T09:08:15.503Z,23.97
2018-12-06T09:10:43.349Z,21.40
2018-12-06T09:13:11.164Z,38.30
2018-12-06T09:15:39.058Z,31.40
2018-12-06T09:18:06.862Z,29.40
2018-12-06T09:20:34.660Z,34.17
2018-12-06T09:23:02.494Z,24.50
2018-12-06T09:25:30.318Z,29.53
2018-12-06T09:27:58.141Z,29.03
2018-12-06T09:30:26.084Z,35.30
2018-12-06T09:32:53.972Z,26.83
2018-12-06T09:35:21.833Z,27.53
2018-12-06T09:37:49.654Z,22.30
2018-12-06T09:40:17.538Z,25.07
2018-12-06T09:42:45.377Z,29.83
2018-12-06T09:45:13.380Z,31.27
2018-12-06T09:47:41.310Z,26.60
2018-12-06T09:50:09.194Z,24.23
2018-12-06T09:52:37.056Z,25.40
2018-12-06T09:55:05.039Z,28.50
2018-12-06T09:57:32.865Z,27.87
2018-12-06T10:00:00.670Z,35.10
2018-12-06T10:02:28.562Z,24.40
2018-12-06T10:04:56.398Z,32.17
2018-12-06T10:07:24.281Z,30.17
2018-12-06T10:09:52.109Z,29.53
2018-12-06T10:12:20.989Z,29.30
2018-12-06T10:14:48.818Z,27.87
2018-12-06T10:17:16.819Z,32.77
2018-12-06T10:19:44.649Z,30.33
2018-12-06T10:22:12.513Z,30.87
2018-12-06T10:24:40.354Z,33.60
2018-12-06T10:27:08.193Z,29.23
2018-12-06T10:29:36.078Z,36.90
2018-12-06T10:32:03.965Z,39.67
2018-12-06T10:34:31.809Z,37.90
2018-12-06T10:36:59.629Z,26.70
2018-12-06T10:39:27.514Z,33.00
2018-12-06T10:41:55.338Z,26.40
2018-12-06T10:44:29.924Z,29.67
2018-12-06T10:46:57.797Z,33.13
2018-12-06T10:49:25.622Z,31.40
2018-12-06T10:51:53.557Z,29.10
2018-12-06T10:54:21.869Z,36.63
2018-12-06T10:56:49.732Z,30.90
2018-12-06T10:59:17.550Z,33.47
2018-12-06T11:01:51.746Z,31.93
2018-12-06T11:04:19.712Z,35.60
2018-12-06T11:06:47.614Z,35.63
2018-12-06T11:09:15.426Z,33.13
2018-12-06T11:11:43.302Z,33.40
2018-12-06T11:14:11.130Z,33.80
2018-12-06T11:16:38.963Z,33.37
2018-12-06T11:19:07.030Z,29.97
2018-12-06T11:21:34.866Z,28.10
2018-12-06T11:24:02.807Z,29.97
2018-12-06T11:26:30.653Z,29.23
2018-12-06T11:28:58.487Z,25.47
2018-12-06T11:31:26.319Z,23.97
2018-12-06T11:33:55.242Z,24.87
2018-12-06T11:36:23.101Z,29.10
2018-12-06T11:38:51.080Z,23.90
2018-12-06T11:41:19.963Z,19.57
2018-12-06T11:43:47.832Z,27.63
2018-12-06T11:46:15.627Z,33.23
2018-12-06T11:48:43.459Z,30.80
2018-12-06T11:51:11.313Z,27.73
2018-12-06T11:53:40.213Z,28.80
2018-12-06T11:56:08.073Z,33.03
2018-12-06T11:58:35.923Z,26.97
2018-12-06T12:01:03.775Z,28.37
2018-12-06T12:03:31.627Z,32.83
2018-12-06T12:05:59.464Z,32.93
2018-12-06T12:08:27.290Z,27.80
2018-12-06T12:10:55.138Z,30.73
2018-12-06T12:13:22.967Z,23.00
2018-12-06T12:15:50.851Z,26.43
2018-12-06T12:18:18.693Z,24.83
2018-12-06T12:20:46.546Z,26.53
2018-12-06T12:23:14.489Z,22.70
2018-12-06T12:25:42.366Z,19.27
2018-12-06T12:28:10.340Z,22.27
2018-12-06T12:30:38.205Z,27.00
2018-12-06T12:33:06.214Z,16.53
2018-12-06T12:35:34.055Z,29.97
2018-12-06T12:38:02.007Z,15.80
2018-12-06T12:40:29.893Z,18.83
2018-12-06T12:42:57.842Z,29.93
2018-12-06T12:45:25.689Z,26.40
2018-12-06T12:47:53.603Z,23.80
2018-12-06T12:50:21.457Z,24.97
2018-12-06T12:52:49.411Z,23.57
2018-12-06T12:55:17.290Z,27.33
2018-12-06T12:57:45.280Z,15.53
2018-12-06T13:00:13.193Z,14.60
2018-12-06T13:02:41.089Z,19.87
2018-12-06T13:05:09.076Z,21.33
2018-12-06T13:07:37.016Z,18.90
2018-12-06T13:10:05.094Z,14.23
2018-12-06T13:12:33.111Z,13.23
2018-12-06T13:15:00.977Z,11.97
2018-12-06T13:17:29.953Z,14.60
2018-12-06T13:19:57.880Z,14.83
2018-12-06T13:22:25.734Z,16.40
2018-12-06T13:24:53.632Z,15.23
2018-12-06T13:27:21.525Z,15.73
2018-12-06T13:29:49.461Z,10.47
2018-12-06T13:32:17.267Z,8.60
2018-12-06T13:34:45.213Z,9.57
2018-12-06T13:37:13.122Z,9.47
2018-12-06T13:39:41.027Z,11.90
2018-12-06T13:42:08.897Z,11.23
2018-12-06T13:44:36.752Z,9.23
2018-12-06T13:47:04.606Z,9.97
2018-12-06T13:49:32.529Z,9.13
2018-12-06T13:52:00.359Z,7.00
2018-12-06T13:54:28.224Z,6.97
2018-12-06T13:56:56.058Z,7.53
2018-12-06T13:59:23.916Z,7.57
2018-12-06T14:01:51.815Z,5.97
2018-12-06T14:04:19.695Z,5.03
2018-12-06T14:06:47.553Z,5.40
2018-12-06T14:09:15.379Z,6.00
2018-12-06T14:11:43.222Z,6.23
2018-12-06T14:14:11.034Z,7.47
2018-12-06T14:16:38.846Z,4.93
2018-12-06T14:19:06.703Z,4.30
2018-12-06T14:21:34.529Z,4.23
2018-12-06T14:24:02.396Z,3.33
2018-12-06T14:26:30.285Z,2.83
2018-12-06T14:28:58.139Z,3.73
2018-12-06T14:31:26.019Z,3.07
2018-12-06T14:33:53.980Z,4.17
2018-12-06T14:36:21.831Z,5.00
2018-12-06T14:38:49.665Z,3.63
2018-12-06T14:41:18.493Z,2.50
2018-12-06T14:43:46.314Z,1.97
2018-12-06T14:46:14.131Z,2.47
2018-12-06T14:48:42.083Z,2.63
2018-12-06T14:51:10.025Z,2.97
2018-12-06T14:53:37.904Z,2.87
2018-12-06T14:56:05.812Z,2.50
2018-12-06T14:58:33.647Z,3.23
2018-12-06T15:01:01.529Z,1.80
2018-12-06T15:03:29.348Z,1.90
2018-12-06T15:05:59.208Z,3.03
2018-12-06T15:08:27.028Z,2.07
2018-12-06T15:10:55.847Z,1.87
2018-12-06T15:13:24.951Z,2.73
2018-12-06T15:15:52.886Z,3.30
2018-12-06T15:18:20.744Z,1.57
2018-12-06T15:20:48.566Z,1.57
2018-12-06T15:23:16.591Z,1.97
2018-12-06T15:25:44.436Z,2.40
2018-12-06T15:28:12.373Z,1.93
2018-12-06T15:30:40.287Z,1.83
2018-12-06T15:33:08.204Z,1.20
2018-12-06T15:35:36.021Z,1.77
2018-12-06T15:38:03.937Z,1.50
2018-12-06T15:40:32.537Z,1.77
2018-12-06T15:43:00.462Z,1.43
2018-12-06T15:45:28.340Z,1.60
2018-12-06T15:47:56.242Z,2.03
2018-12-06T15:50:24.087Z,2.17
2018-12-06T15:52:51.947Z,2.77
2018-12-06T15:55:19.890Z,3.13
2018-12-06T15:57:47.832Z,3.17
2018-12-06T16:00:15.820Z,3.73
2018-12-06T16:02:43.761Z,3.73
2018-12-06T16:05:11.603Z,3.43
2018-12-06T16:07:39.586Z,4.63
2018-12-06T16:10:08.382Z,3.93
2018-12-06T16:12:36.332Z,4.30
2018-12-06T16:15:04.888Z,7.47
2018-12-06T16:17:33.010Z,5.33
2018-12-06T16:20:01.011Z,8.23
2018-12-06T16:22:28.895Z,8.20
2018-12-06T16:24:56.790Z,9.43
2018-12-06T16:27:24.682Z,9.73
2018-12-06T16:29:52.633Z,10.93
2018-12-06T16:32:20.638Z,10.63
2018-12-06T16:34:48.622Z,11.40
2018-12-06T16:37:16.482Z,10.43
2018-12-06T16:39:44.387Z,12.77
2018-12-06T16:42:12.221Z,10.93
2018-12-06T16:44:40.167Z,12.27
2018-12-06T16:47:08.106Z,11.83
2018-12-06T16:49:36.184Z,10.70
2018-12-06T16:52:04.145Z,13.13
2018-12-06T16:54:32.029Z,12.60
2018-12-06T16:56:59.900Z,12.27
2018-12-06T16:59:27.838Z,11.40
2018-12-06T17:01:55.760Z,14.33
2018-12-06T17:04:23.665Z,11.37
2018-12-06T17:06:51.517Z,13.90
2018-12-06T17:09:19.457Z,13.27
2018-12-06T17:11:47.296Z,13.17
2018-12-06T17:14:15.267Z,12.53
2018-12-06T17:16:43.116Z,14.30
2018-12-06T17:19:11.035Z,14.70
2018-12-06T17:21:38.920Z,14.10
2018-12-06T17:24:06.824Z,12.53
2018-12-06T17:26:34.674Z,11.97
2018-12-06T17:29:02.567Z,10.47
2018-12-06T17:31:30.438Z,11.40
2018-12-06T17:33:58.428Z,11.20
2018-12-06T17:36:26.295Z,10.43
2018-12-06T17:38:54.244Z,11.13
2018-12-06T17:41:22.103Z,11.20
2018-12-06T17:43:50.074Z,9.20
2018-12-06T17:46:17.923Z,11.10
2018-12-06T17:48:45.861Z,12.87
2018-12-06T17:51:13.779Z,12.03
2018-12-06T17:53:41.779Z,11.90
2018-12-06T17:56:09.639Z,13.70
2018-12-06T17:58:37.797Z,15.73
2018-12-06T18:01:05.802Z,12.67
2018-12-06T18:03:33.749Z,12.00
2018-12-06T18:06:01.856Z,12.57
2018-12-06T18:08:29.790Z,12.53
2018-12-06T18:10:57.778Z,14.03
2018-12-06T18:14:00.213Z,13.87
2018-12-06T18:16:28.087Z,12.73
2018-12-06T18:18:55.963Z,12.53
2018-12-06T18:21:23.998Z,11.27
2018-12-06T18:23:51.876Z,12.17
2018-12-06T18:26:19.759Z,11.87
2018-12-06T18:28:47.713Z,13.60
2018-12-06T18:31:15.569Z,13.47
2018-12-06T18:33:43.433Z,12.93
2018-12-06T18:36:11.301Z,12.17
2018-12-06T18:38:39.181Z,9.47
2018-12-06T18:41:07.085Z,6.77
2018-12-06T18:43:35.033Z,8.70
2018-12-06T18:46:03.120Z,8.23
2018-12-06T18:48:30.988Z,11.20
2018-12-06T18:50:58.852Z,13.83
2018-12-06T18:53:27.294Z,13.50
2018-12-06T18:55:55.573Z,11.20
2018-12-06T18:58:23.456Z,11.93
2018-12-06T19:00:51.418Z,13.03
2018-12-06T19:03:19.262Z,9.20
2018-12-06T19:05:47.255Z,8.37
2018-12-06T19:08:15.113Z,15.43
2018-12-06T19:10:42.967Z,11.67
2018-12-06T19:13:10.878Z,11.57
2018-12-06T19:15:38.807Z,16.73
2018-12-06T19:18:06.927Z,21.57
2018-12-06T19:20:34.833Z,15.07
2018-12-06T19:23:02.919Z,24.30
2018-12-06T19:25:30.774Z,13.13
2018-12-06T19:27:58.659Z,13.77
2018-12-06T19:30:26.582Z,19.80
2018-12-06T19:32:57.927Z,16.40
2018-12-06T19:35:24.383Z,15.60
2018-12-06T19:37:52.248Z,14.10
2018-12-06T19:40:20.097Z,27.37
2018-12-06T19:42:48.076Z,18.67
2018-12-06T19:45:15.925Z,18.70
2018-12-06T19:47:45.039Z,16.87
2018-12-06T19:50:12.867Z,21.70
2018-12-06T19:52:40.706Z,23.70
2018-12-06T19:55:08.646Z,12.43
2018-12-06T19:57:36.574Z,16.63
2018-12-06T20:00:04.603Z,22.30
2018-12-06T20:02:32.632Z,18.93
2018-12-06T20:05:00.441Z,13.30
2018-12-06T20:07:28.304Z,18.43
2018-12-06T20:09:56.220Z,18.73
2018-12-06T20:12:24.101Z,14.67
2018-12-06T20:14:51.930Z,13.07
2018-12-06T20:17:19.832Z,23.77
2018-12-06T20:19:47.694Z,19.13
2018-12-06T20:22:16.262Z,18.33
2018-12-06T20:24:56.142Z,13.90
2018-12-06T20:27:24.237Z,12.77
2018-12-06T20:29:52.089Z,20.03
2018-12-06T20:32:19.929Z,15.20
2018-12-06T20:34:47.787Z,15.50
2018-12-06T20:37:17.034Z,22.97
2018-12-06T20:39:45.005Z,24.17
2018-12-06T20:42:12.896Z,21.77
2018-12-06T20:44:40.720Z,21.57
2018-12-06T20:47:10.586Z,22.97
2018-12-06T20:49:38.495Z,29.37
2018-12-06T20:52:06.341Z,20.87
2018-12-06T20:54:34.233Z,25.53
2018-12-06T20:57:02.101Z,26.60
2018-12-06T20:59:29.994Z,29.97
2018-12-06T21:01:57.845Z,33.10
2018-12-06T21:04:26.248Z,24.10
2018-12-06T21:06:54.112Z,32.87
2018-12-06T21:09:21.972Z,28.80
2018-12-06T21:11:49.834Z,24.10
2018-12-06T21:14:22.101Z,33.73
2018-12-06T21:16:47.628Z,33.37
2018-12-06T21:19:15.459Z,41.17
2018-12-06T21:21:43.327Z,31.27
2018-12-06T21:24:11.137Z,33.37
2018-12-06T21:26:38.975Z,27.60
2018-12-06T21:29:06.789Z,38.90
2018-12-06T21:31:35.666Z,36.37
2018-12-06T21:34:03.548Z,26.53
2018-12-06T21:36:31.425Z,33.03
2018-12-06T21:38:59.297Z,31.90
2018-12-06T21:41:27.136Z,30.77
2018-12-06T21:43:54.982Z,37.47
2018-12-06T21:46:22.893Z,25.50
2018-12-06T21:48:50.743Z,22.77
2018-12-06T21:51:18.633Z,35.63
2018-12-06T21:53:46.492Z,28.37
2018-12-06T21:56:14.408Z,27.83
2018-12-06T21:58:42.231Z,32.00
2018-12-06T22:01:10.130Z,24.93
2018-12-06T22:03:37.954Z,26.97
2018-12-06T22:06:06.006Z,36.53
2018-12-06T22:08:33.841Z,26.07
2018-12-06T22:11:01.727Z,20.53
2018-12-06T22:13:29.678Z,17.17
2018-12-06T22:15:57.516Z,25.60
2018-12-06T22:18:25.520Z,19.97
2018-12-06T22:20:53.342Z,18.50
2018-12-06T22:23:21.240Z,16.33
2018-12-06T22:25:49.107Z,25.07
2018-12-06T22:28:16.993Z,23.70
2018-12-06T22:30:44.882Z,23.57
2018-12-06T22:33:12.845Z,20.50
2018-12-06T22:35:40.684Z,21.30
2018-12-06T22:38:08.656Z,22.60
2018-12-06T22:40:36.583Z,16.23
2018-12-06T22:43:04.505Z,20.20
2018-12-06T22:46:09.132Z,18.57
2018-12-06T22:48:36.983Z,25.30
2018-12-06T22:51:06.170Z,32.40
2018-12-06T22:53:34.003Z,25.60
2018-12-06T22:56:01.883Z,17.13
2018-12-06T22:58:29.961Z,19.47
2018-12-06T23:00:59.110Z,25.10
2018-12-06T23:03:26.992Z,16.03
2018-12-06T23:05:55.029Z,12.33
2018-12-06T23:08:22.891Z,19.07
2018-12-06T23:10:50.942Z,18.53
2018-12-06T23:13:18.815Z,9.90
2018-12-06T23:15:46.745Z,17.10
2018-12-06T23:18:14.621Z,15.43
2018-12-06T23:20:42.493Z,16.37
2018-12-06T23:23:10.350Z,16.80
2018-12-06T23:25:38.235Z,19.23
2018-12-06T23:28:06.120Z,13.63
2018-12-06T23:30:33.958Z,14.23
2018-12-06T23:33:01.853Z,10.37
2018-12-06T23:35:29.677Z,13.77
2018-12-06T23:37:57.572Z,14.87
2018-12-06T23:40:25.443Z,12.47
2018-12-06T23:42:53.290Z,21.37
2018-12-06T23:45:21.117Z,20.30
2018-12-06T23:47:49.091Z,13.90
2018-12-06T23:50:16.907Z,15.67
2018-12-06T23:52:44.830Z,14.90
2018-12-06T23:55:12.631Z,15.67
2018-12-06T23:57:40.481Z,19.50
